sensor_id;sensor_type;location;lat;lon;timestamp;temperature;humidity
54960;DHT22;40860;51.710;8.736;2022-08-25T00:00:45;22.40;55.00
54960;DHT22;40860;51.710;8.736;2022-08-25T00:04:48;22.40;55.10
54960;DHT22;40860;51.710;8.736;2022-08-25T00:08:57;22.30;55.70
54960;DHT22;40860;51.710;8.736;2022-08-25T00:13:01;22.20;55.80
54960;DHT22;40860;51.710;8.736;2022-08-25T00:17:05;22.20;55.90
54960;DHT22;40860;51.710;8.736;2022-08-25T00:21:08;22.20;56.30
54960;DHT22;40860;51.710;8.736;2022-08-25T00:25:12;22.20;56.30
54960;DHT22;40860;51.710;8.736;2022-08-25T00:29:16;22.20;56.60
54960;DHT22;40860;51.710;8.736;2022-08-25T00:33:19;22.10;56.80
54960;DHT22;40860;51.710;8.736;2022-08-25T00:37:22;22.00;57.00
54960;DHT22;40860;51.710;8.736;2022-08-25T00:41:26;22.10;57.10
54960;DHT22;40860;51.710;8.736;2022-08-25T00:45:29;22.00;57.10
54960;DHT22;40860;51.710;8.736;2022-08-25T00:49:35;21.90;57.40
54960;DHT22;40860;51.710;8.736;2022-08-25T00:53:39;21.90;57.80
54960;DHT22;40860;51.710;8.736;2022-08-25T00:57:46;21.70;58.30
54960;DHT22;40860;51.710;8.736;2022-08-25T01:01:50;21.70;58.30
54960;DHT22;40860;51.710;8.736;2022-08-25T01:05:53;21.60;58.50
54960;DHT22;40860;51.710;8.736;2022-08-25T01:09:58;21.50;58.80
54960;DHT22;40860;51.710;8.736;2022-08-25T01:14:03;21.40;59.50
54960;DHT22;40860;51.710;8.736;2022-08-25T01:18:07;21.40;59.50
54960;DHT22;40860;51.710;8.736;2022-08-25T01:22:11;21.40;59.80
54960;DHT22;40860;51.710;8.736;2022-08-25T01:26:17;21.40;60.30
54960;DHT22;40860;51.710;8.736;2022-08-25T01:30:31;21.30;60.10
54960;DHT22;40860;51.710;8.736;2022-08-25T01:34:37;21.30;60.80
54960;DHT22;40860;51.710;8.736;2022-08-25T01:38:42;21.20;61.20
54960;DHT22;40860;51.710;8.736;2022-08-25T01:42:53;21.20;61.30
54960;DHT22;40860;51.710;8.736;2022-08-25T01:46:59;21.30;62.10
54960;DHT22;40860;51.710;8.736;2022-08-25T01:51:01;21.30;62.20
54960;DHT22;40860;51.710;8.736;2022-08-25T01:55:06;21.30;62.20
54960;DHT22;40860;51.710;8.736;2022-08-25T01:59:09;21.30;62.80
54960;DHT22;40860;51.710;8.736;2022-08-25T02:03:12;21.30;63.00
54960;DHT22;40860;51.710;8.736;2022-08-25T02:07:19;21.30;63.00
54960;DHT22;40860;51.710;8.736;2022-08-25T02:11:24;21.20;63.10
54960;DHT22;40860;51.710;8.736;2022-08-25T02:15:26;21.20;63.10
54960;DHT22;40860;51.710;8.736;2022-08-25T02:19:29;21.10;63.30
54960;DHT22;40860;51.710;8.736;2022-08-25T02:23:32;21.00;63.30
54960;DHT22;40860;51.710;8.736;2022-08-25T02:27:37;21.00;63.40
54960;DHT22;40860;51.710;8.736;2022-08-25T02:31:40;21.00;63.30
54960;DHT22;40860;51.710;8.736;2022-08-25T02:35:43;21.00;63.70
54960;DHT22;40860;51.710;8.736;2022-08-25T02:39:46;21.00;63.60
54960;DHT22;40860;51.710;8.736;2022-08-25T02:43:51;21.00;63.70
54960;DHT22;40860;51.710;8.736;2022-08-25T02:47:54;20.90;64.00
54960;DHT22;40860;51.710;8.736;2022-08-25T02:51:57;20.90;64.20
54960;DHT22;40860;51.710;8.736;2022-08-25T02:56:02;20.80;64.30
54960;DHT22;40860;51.710;8.736;2022-08-25T03:00:08;20.70;64.80
54960;DHT22;40860;51.710;8.736;2022-08-25T03:04:13;20.60;65.20
54960;DHT22;40860;51.710;8.736;2022-08-25T03:08:16;20.50;65.60
54960;DHT22;40860;51.710;8.736;2022-08-25T03:12:19;20.40;66.10
54960;DHT22;40860;51.710;8.736;2022-08-25T03:16:24;20.30;66.80
54960;DHT22;40860;51.710;8.736;2022-08-25T03:20:28;20.30;67.00
54960;DHT22;40860;51.710;8.736;2022-08-25T03:24:32;20.10;67.90
54960;DHT22;40860;51.710;8.736;2022-08-25T03:28:34;20.00;68.40
54960;DHT22;40860;51.710;8.736;2022-08-25T03:32:39;20.00;68.70
54960;DHT22;40860;51.710;8.736;2022-08-25T03:36:41;20.00;69.50
54960;DHT22;40860;51.710;8.736;2022-08-25T03:40:45;20.00;69.20
54960;DHT22;40860;51.710;8.736;2022-08-25T03:44:48;19.90;70.00
54960;DHT22;40860;51.710;8.736;2022-08-25T03:48:52;19.80;70.00
54960;DHT22;40860;51.710;8.736;2022-08-25T03:52:56;19.80;70.80
54960;DHT22;40860;51.710;8.736;2022-08-25T03:56:59;19.70;70.60
54960;DHT22;40860;51.710;8.736;2022-08-25T04:01:02;19.60;71.40
54960;DHT22;40860;51.710;8.736;2022-08-25T04:05:08;19.60;72.20
54960;DHT22;40860;51.710;8.736;2022-08-25T04:09:11;19.50;72.40
54960;DHT22;40860;51.710;8.736;2022-08-25T04:13:14;19.40;73.60
54960;DHT22;40860;51.710;8.736;2022-08-25T04:17:17;19.50;74.20
54960;DHT22;40860;51.710;8.736;2022-08-25T04:21:22;19.60;73.80
54960;DHT22;40860;51.710;8.736;2022-08-25T04:25:26;19.60;73.90
54960;DHT22;40860;51.710;8.736;2022-08-25T04:29:28;19.60;74.10
54960;DHT22;40860;51.710;8.736;2022-08-25T04:33:31;19.60;74.10
54960;DHT22;40860;51.710;8.736;2022-08-25T04:37:36;19.50;74.20
54960;DHT22;40860;51.710;8.736;2022-08-25T04:41:39;19.50;73.90
54960;DHT22;40860;51.710;8.736;2022-08-25T04:45:41;19.40;74.30
54960;DHT22;40860;51.710;8.736;2022-08-25T04:49:44;19.40;74.80
54960;DHT22;40860;51.710;8.736;2022-08-25T04:53:50;19.30;75.50
54960;DHT22;40860;51.710;8.736;2022-08-25T04:57:53;19.30;74.60
54960;DHT22;40860;51.710;8.736;2022-08-25T05:01:56;19.30;75.20
54960;DHT22;40860;51.710;8.736;2022-08-25T05:06:03;19.40;75.30
54960;DHT22;40860;51.710;8.736;2022-08-25T05:10:08;19.40;76.10
54960;DHT22;40860;51.710;8.736;2022-08-25T05:14:11;19.50;76.60
54960;DHT22;40860;51.710;8.736;2022-08-25T05:18:17;19.50;76.60
54960;DHT22;40860;51.710;8.736;2022-08-25T05:22:20;19.50;77.20
54960;DHT22;40860;51.710;8.736;2022-08-25T05:26:26;19.60;77.20
54960;DHT22;40860;51.710;8.736;2022-08-25T05:30:30;19.80;77.30
54960;DHT22;40860;51.710;8.736;2022-08-25T05:34:34;21.10;76.60
54960;DHT22;40860;51.710;8.736;2022-08-25T05:38:38;23.10;73.00
54960;DHT22;40860;51.710;8.736;2022-08-25T05:42:42;25.10;65.90
54960;DHT22;40860;51.710;8.736;2022-08-25T05:46:45;27.20;59.90
54960;DHT22;40860;51.710;8.736;2022-08-25T05:50:51;27.80;56.10
54960;DHT22;40860;51.710;8.736;2022-08-25T05:54:54;26.90;57.10
54960;DHT22;40860;51.710;8.736;2022-08-25T05:58:58;26.00;57.50
54960;DHT22;40860;51.710;8.736;2022-08-25T06:03:01;25.10;59.60
54960;DHT22;40860;51.710;8.736;2022-08-25T06:07:03;24.60;60.50
54960;DHT22;40860;51.710;8.736;2022-08-25T06:11:06;24.20;62.10
54960;DHT22;40860;51.710;8.736;2022-08-25T06:15:13;24.30;62.90
54960;DHT22;40860;51.710;8.736;2022-08-25T06:19:17;25.40;61.80
54960;DHT22;40860;51.710;8.736;2022-08-25T06:23:19;26.00;58.30
54960;DHT22;40860;51.710;8.736;2022-08-25T06:27:22;24.80;59.50
54960;DHT22;40860;51.710;8.736;2022-08-25T06:31:26;24.10;62.50
54960;DHT22;40860;51.710;8.736;2022-08-25T06:35:29;23.50;64.40
54960;DHT22;40860;51.710;8.736;2022-08-25T06:39:35;23.20;65.90
54960;DHT22;40860;51.710;8.736;2022-08-25T06:43:38;23.20;66.50
54960;DHT22;40860;51.710;8.736;2022-08-25T06:47:50;23.20;66.80
54960;DHT22;40860;51.710;8.736;2022-08-25T06:51:53;23.20;67.10
54960;DHT22;40860;51.710;8.736;2022-08-25T06:55:56;23.30;67.10
54960;DHT22;40860;51.710;8.736;2022-08-25T07:00:04;23.30;67.70
54960;DHT22;40860;51.710;8.736;2022-08-25T07:04:09;23.30;67.80
54960;DHT22;40860;51.710;8.736;2022-08-25T07:08:14;23.40;68.20
54960;DHT22;40860;51.710;8.736;2022-08-25T07:12:16;23.40;68.40
54960;DHT22;40860;51.710;8.736;2022-08-25T07:16:19;24.20;68.20
54960;DHT22;40860;51.710;8.736;2022-08-25T07:20:24;25.10;65.60
54960;DHT22;40860;51.710;8.736;2022-08-25T07:24:28;25.10;64.40
54960;DHT22;40860;51.710;8.736;2022-08-25T07:28:30;24.90;65.40
54960;DHT22;40860;51.710;8.736;2022-08-25T07:32:35;24.70;66.00
54960;DHT22;40860;51.710;8.736;2022-08-25T07:36:44;24.70;66.50
54960;DHT22;40860;51.710;8.736;2022-08-25T07:40:47;24.70;66.70
54960;DHT22;40860;51.710;8.736;2022-08-25T07:44:57;24.70;67.10
54960;DHT22;40860;51.710;8.736;2022-08-25T07:49:00;25.00;66.90
54960;DHT22;40860;51.710;8.736;2022-08-25T07:53:05;25.20;66.10
54960;DHT22;40860;51.710;8.736;2022-08-25T07:57:08;25.50;65.00
54960;DHT22;40860;51.710;8.736;2022-08-25T08:01:13;25.50;64.50
54960;DHT22;40860;51.710;8.736;2022-08-25T08:05:16;25.60;64.30
54960;DHT22;40860;51.710;8.736;2022-08-25T08:09:20;26.20;64.10
54960;DHT22;40860;51.710;8.736;2022-08-25T08:13:23;26.90;61.90
54960;DHT22;40860;51.710;8.736;2022-08-25T08:17:27;27.20;60.20
54960;DHT22;40860;51.710;8.736;2022-08-25T08:21:32;27.40;59.40
54960;DHT22;40860;51.710;8.736;2022-08-25T08:25:36;27.20;59.40
54960;DHT22;40860;51.710;8.736;2022-08-25T08:29:40;27.60;58.90
54960;DHT22;40860;51.710;8.736;2022-08-25T08:33:44;27.70;58.90
54960;DHT22;40860;51.710;8.736;2022-08-25T08:37:47;28.00;57.80
54960;DHT22;40860;51.710;8.736;2022-08-25T08:46:23;28.90;56.40
54960;DHT22;40860;51.710;8.736;2022-08-25T08:50:33;29.30;55.50
54960;DHT22;40860;51.710;8.736;2022-08-25T08:54:41;29.20;55.30
54960;DHT22;40860;51.710;8.736;2022-08-25T08:58:49;28.80;55.10
54960;DHT22;40860;51.710;8.736;2022-08-25T09:02:57;28.50;56.50
54960;DHT22;40860;51.710;8.736;2022-08-25T09:07:10;28.50;56.50
54960;DHT22;40860;51.710;8.736;2022-08-25T09:11:23;28.60;55.40
54960;DHT22;40860;51.710;8.736;2022-08-25T09:15:40;28.60;55.90
54960;DHT22;40860;51.710;8.736;2022-08-25T09:20:14;28.50;56.10
54960;DHT22;40860;51.710;8.736;2022-08-25T09:24:33;28.70;55.50
54960;DHT22;40860;51.710;8.736;2022-08-25T09:28:44;28.80;54.90
54960;DHT22;40860;51.710;8.736;2022-08-25T09:32:55;29.10;55.50
54960;DHT22;40860;51.710;8.736;2022-08-25T09:37:05;29.60;53.70
54960;DHT22;40860;51.710;8.736;2022-08-25T09:41:08;30.10;53.20
54960;DHT22;40860;51.710;8.736;2022-08-25T09:45:13;30.40;52.30
54960;DHT22;40860;51.710;8.736;2022-08-25T09:49:18;30.50;51.50
54960;DHT22;40860;51.710;8.736;2022-08-25T09:53:21;30.50;50.80
54960;DHT22;40860;51.710;8.736;2022-08-25T09:57:33;30.20;51.50
54960;DHT22;40860;51.710;8.736;2022-08-25T10:01:47;30.10;49.90
54960;DHT22;40860;51.710;8.736;2022-08-25T10:06:02;30.40;50.40
54960;DHT22;40860;51.710;8.736;2022-08-25T10:10:22;30.90;49.70
54960;DHT22;40860;51.710;8.736;2022-08-25T10:14:31;30.80;49.80
54960;DHT22;40860;51.710;8.736;2022-08-25T10:18:36;30.70;49.50
54960;DHT22;40860;51.710;8.736;2022-08-25T10:22:42;31.30;49.80
54960;DHT22;40860;51.710;8.736;2022-08-25T10:26:55;31.20;49.00
54960;DHT22;40860;51.710;8.736;2022-08-25T10:31:06;30.60;49.70
54960;DHT22;40860;51.710;8.736;2022-08-25T10:35:12;30.80;49.80
54960;DHT22;40860;51.710;8.736;2022-08-25T10:39:26;31.10;49.60
54960;DHT22;40860;51.710;8.736;2022-08-25T10:43:42;30.70;49.20
54960;DHT22;40860;51.710;8.736;2022-08-25T10:47:57;30.40;49.40
54960;DHT22;40860;51.710;8.736;2022-08-25T10:52:06;30.10;49.20
54960;DHT22;40860;51.710;8.736;2022-08-25T10:56:17;30.20;50.00
54960;DHT22;40860;51.710;8.736;2022-08-25T11:00:22;30.70;49.60
54960;DHT22;40860;51.710;8.736;2022-08-25T11:04:37;30.30;49.60
54960;DHT22;40860;51.710;8.736;2022-08-25T11:08:44;30.30;50.00
54960;DHT22;40860;51.710;8.736;2022-08-25T11:12:53;30.30;49.20
54960;DHT22;40860;51.710;8.736;2022-08-25T11:17:01;30.00;49.20
54960;DHT22;40860;51.710;8.736;2022-08-25T11:21:10;30.00;50.00
54960;DHT22;40860;51.710;8.736;2022-08-25T11:25:17;30.10;49.60
54960;DHT22;40860;51.710;8.736;2022-08-25T11:29:27;30.40;48.70
54960;DHT22;40860;51.710;8.736;2022-08-25T11:33:33;30.50;48.70
54960;DHT22;40860;51.710;8.736;2022-08-25T11:37:46;30.60;47.90
54960;DHT22;40860;51.710;8.736;2022-08-25T11:42:06;30.30;47.80
54960;DHT22;40860;51.710;8.736;2022-08-25T11:46:25;30.10;47.70
54960;DHT22;40860;51.710;8.736;2022-08-25T11:50:34;30.10;47.50
54960;DHT22;40860;51.710;8.736;2022-08-25T11:54:42;30.30;48.00
54960;DHT22;40860;51.710;8.736;2022-08-25T11:58:48;30.60;47.70
54960;DHT22;40860;51.710;8.736;2022-08-25T12:02:53;30.90;48.00
54960;DHT22;40860;51.710;8.736;2022-08-25T12:07:21;31.00;46.90
54960;DHT22;40860;51.710;8.736;2022-08-25T12:11:50;30.40;47.10
54960;DHT22;40860;51.710;8.736;2022-08-25T12:15:58;30.20;47.60
54960;DHT22;40860;51.710;8.736;2022-08-25T12:20:05;30.10;47.30
54960;DHT22;40860;51.710;8.736;2022-08-25T12:24:14;30.30;47.40
54960;DHT22;40860;51.710;8.736;2022-08-25T12:28:29;30.50;47.90
54960;DHT22;40860;51.710;8.736;2022-08-25T12:32:52;30.60;47.50
54960;DHT22;40860;51.710;8.736;2022-08-25T12:37:01;30.50;47.00
54960;DHT22;40860;51.710;8.736;2022-08-25T12:41:08;30.50;47.60
54960;DHT22;40860;51.710;8.736;2022-08-25T12:45:35;30.70;46.70
54960;DHT22;40860;51.710;8.736;2022-08-25T12:49:39;30.60;46.90
54960;DHT22;40860;51.710;8.736;2022-08-25T12:53:47;30.70;47.20
54960;DHT22;40860;51.710;8.736;2022-08-25T12:57:53;30.70;46.90
54960;DHT22;40860;51.710;8.736;2022-08-25T13:02:26;30.50;47.10
54960;DHT22;40860;51.710;8.736;2022-08-25T13:06:52;30.80;46.50
54960;DHT22;40860;51.710;8.736;2022-08-25T13:11:08;30.70;46.00
54960;DHT22;40860;51.710;8.736;2022-08-25T13:15:14;30.90;46.30
54960;DHT22;40860;51.710;8.736;2022-08-25T13:19:18;31.10;45.20
54960;DHT22;40860;51.710;8.736;2022-08-25T13:23:25;31.20;45.90
54960;DHT22;40860;51.710;8.736;2022-08-25T13:27:33;31.40;45.10
54960;DHT22;40860;51.710;8.736;2022-08-25T13:31:39;31.20;44.80
54960;DHT22;40860;51.710;8.736;2022-08-25T13:35:53;31.00;45.60
54960;DHT22;40860;51.710;8.736;2022-08-25T13:40:22;30.90;45.80
54960;DHT22;40860;51.710;8.736;2022-08-25T13:44:30;31.00;45.70
54960;DHT22;40860;51.710;8.736;2022-08-25T13:48:36;30.70;46.10
54960;DHT22;40860;51.710;8.736;2022-08-25T13:52:39;30.60;46.00
54960;DHT22;40860;51.710;8.736;2022-08-25T13:56:43;31.00;46.70
54960;DHT22;40860;51.710;8.736;2022-08-25T14:01:02;31.30;45.70
54960;DHT22;40860;51.710;8.736;2022-08-25T14:05:32;31.40;45.00
54960;DHT22;40860;51.710;8.736;2022-08-25T14:09:39;31.50;44.60
54960;DHT22;40860;51.710;8.736;2022-08-25T14:13:43;31.50;44.60
54960;DHT22;40860;51.710;8.736;2022-08-25T14:17:59;31.60;44.40
54960;DHT22;40860;51.710;8.736;2022-08-25T14:22:04;31.80;43.90
54960;DHT22;40860;51.710;8.736;2022-08-25T14:26:07;32.50;43.60
54960;DHT22;40860;51.710;8.736;2022-08-25T14:30:12;33.20;42.00
54960;DHT22;40860;51.710;8.736;2022-08-25T14:34:18;33.60;41.10
54960;DHT22;40860;51.710;8.736;2022-08-25T14:38:22;33.80;40.80
54960;DHT22;40860;51.710;8.736;2022-08-25T14:42:25;34.20;40.40
54960;DHT22;40860;51.710;8.736;2022-08-25T14:46:30;33.90;40.20
54960;DHT22;40860;51.710;8.736;2022-08-25T14:50:36;34.10;39.80
54960;DHT22;40860;51.710;8.736;2022-08-25T14:54:42;34.20;39.50
54960;DHT22;40860;51.710;8.736;2022-08-25T14:58:46;34.50;39.80
54960;DHT22;40860;51.710;8.736;2022-08-25T15:02:55;34.80;39.20
54960;DHT22;40860;51.710;8.736;2022-08-25T15:07:00;35.00;38.20
54960;DHT22;40860;51.710;8.736;2022-08-25T15:11:24;34.90;38.10
54960;DHT22;40860;51.710;8.736;2022-08-25T15:15:29;35.20;38.10
54960;DHT22;40860;51.710;8.736;2022-08-25T15:19:34;34.70;37.90
54960;DHT22;40860;51.710;8.736;2022-08-25T15:23:39;34.30;38.70
54960;DHT22;40860;51.710;8.736;2022-08-25T15:27:45;34.80;39.20
54960;DHT22;40860;51.710;8.736;2022-08-25T15:31:48;35.00;38.20
54960;DHT22;40860;51.710;8.736;2022-08-25T15:35:51;34.60;38.60
54960;DHT22;40860;51.710;8.736;2022-08-25T15:39:56;34.50;38.60
54960;DHT22;40860;51.710;8.736;2022-08-25T15:43:59;34.80;39.30
54960;DHT22;40860;51.710;8.736;2022-08-25T15:48:02;35.30;37.90
54960;DHT22;40860;51.710;8.736;2022-08-25T15:52:10;35.50;37.50
54960;DHT22;40860;51.710;8.736;2022-08-25T15:56:15;35.10;38.30
54960;DHT22;40860;51.710;8.736;2022-08-25T16:00:27;35.40;38.10
54960;DHT22;40860;51.710;8.736;2022-08-25T16:04:32;35.60;37.70
54960;DHT22;40860;51.710;8.736;2022-08-25T16:08:36;35.60;37.40
54960;DHT22;40860;51.710;8.736;2022-08-25T16:12:40;35.50;37.70
54960;DHT22;40860;51.710;8.736;2022-08-25T16:16:43;35.60;37.80
54960;DHT22;40860;51.710;8.736;2022-08-25T16:20:46;35.30;38.20
54960;DHT22;40860;51.710;8.736;2022-08-25T16:24:50;35.60;38.60
54960;DHT22;40860;51.710;8.736;2022-08-25T16:28:55;35.30;37.80
54960;DHT22;40860;51.710;8.736;2022-08-25T16:32:57;35.10;38.30
54960;DHT22;40860;51.710;8.736;2022-08-25T16:37:01;34.90;38.50
54960;DHT22;40860;51.710;8.736;2022-08-25T16:41:05;34.40;38.80
54960;DHT22;40860;51.710;8.736;2022-08-25T16:45:11;33.90;39.70
54960;DHT22;40860;51.710;8.736;2022-08-25T16:49:14;34.00;39.80
54960;DHT22;40860;51.710;8.736;2022-08-25T16:53:17;33.70;39.20
54960;DHT22;40860;51.710;8.736;2022-08-25T16:57:43;33.10;40.20
54960;DHT22;40860;51.710;8.736;2022-08-25T17:01:50;32.60;40.70
54960;DHT22;40860;51.710;8.736;2022-08-25T17:05:57;32.50;41.20
54960;DHT22;40860;51.710;8.736;2022-08-25T17:10:04;32.30;41.20
54960;DHT22;40860;51.710;8.736;2022-08-25T17:14:17;31.90;41.60
54960;DHT22;40860;51.710;8.736;2022-08-25T17:18:21;31.70;42.10
54960;DHT22;40860;51.710;8.736;2022-08-25T17:22:24;31.40;41.80
54960;DHT22;40860;51.710;8.736;2022-08-25T17:26:28;31.10;42.80
54960;DHT22;40860;51.710;8.736;2022-08-25T17:30:32;30.90;43.30
54960;DHT22;40860;51.710;8.736;2022-08-25T17:34:36;30.70;43.50
54960;DHT22;40860;51.710;8.736;2022-08-25T17:38:39;30.50;43.60
54960;DHT22;40860;51.710;8.736;2022-08-25T17:42:42;30.30;44.10
54960;DHT22;40860;51.710;8.736;2022-08-25T17:46:45;30.10;44.60
54960;DHT22;40860;51.710;8.736;2022-08-25T17:50:50;29.90;44.90
54960;DHT22;40860;51.710;8.736;2022-08-25T17:54:53;29.80;45.40
54960;DHT22;40860;51.710;8.736;2022-08-25T17:58:59;29.60;45.90
54960;DHT22;40860;51.710;8.736;2022-08-25T18:03:03;29.50;46.20
54960;DHT22;40860;51.710;8.736;2022-08-25T18:07:08;29.30;46.70
54960;DHT22;40860;51.710;8.736;2022-08-25T18:11:11;29.10;47.00
54960;DHT22;40860;51.710;8.736;2022-08-25T18:15:14;29.00;47.20
54960;DHT22;40860;51.710;8.736;2022-08-25T18:19:17;28.70;47.80
54960;DHT22;40860;51.710;8.736;2022-08-25T18:23:22;28.60;48.30
54960;DHT22;40860;51.710;8.736;2022-08-25T18:27:24;28.40;48.40
54960;DHT22;40860;51.710;8.736;2022-08-25T18:31:29;28.20;48.90
54960;DHT22;40860;51.710;8.736;2022-08-25T18:35:32;28.00;49.40
54960;DHT22;40860;51.710;8.736;2022-08-25T18:39:37;27.90;49.60
54960;DHT22;40860;51.710;8.736;2022-08-25T18:43:57;27.80;50.00
54960;DHT22;40860;51.710;8.736;2022-08-25T18:48:00;27.60;50.50
54960;DHT22;40860;51.710;8.736;2022-08-25T18:52:06;27.40;51.10
54960;DHT22;40860;51.710;8.736;2022-08-25T18:56:10;27.20;51.40
54960;DHT22;40860;51.710;8.736;2022-08-25T19:00:17;27.00;52.10
54960;DHT22;40860;51.710;8.736;2022-08-25T19:04:20;26.80;52.30
54960;DHT22;40860;51.710;8.736;2022-08-25T19:08:32;26.70;52.20
54960;DHT22;40860;51.710;8.736;2022-08-25T19:12:37;26.70;52.30
54960;DHT22;40860;51.710;8.736;2022-08-25T19:16:41;26.60;52.30
54960;DHT22;40860;51.710;8.736;2022-08-25T19:20:44;26.50;52.50
54960;DHT22;40860;51.710;8.736;2022-08-25T19:24:47;26.40;52.70
54960;DHT22;40860;51.710;8.736;2022-08-25T19:28:52;26.20;53.10
54960;DHT22;40860;51.710;8.736;2022-08-25T19:32:56;26.20;53.40
54960;DHT22;40860;51.710;8.736;2022-08-25T19:37:01;26.10;53.50
54960;DHT22;40860;51.710;8.736;2022-08-25T19:41:06;26.00;54.00
54960;DHT22;40860;51.710;8.736;2022-08-25T19:45:18;25.90;54.00
54960;DHT22;40860;51.710;8.736;2022-08-25T19:49:25;25.80;54.70
54960;DHT22;40860;51.710;8.736;2022-08-25T19:53:32;25.60;55.00
54960;DHT22;40860;51.710;8.736;2022-08-25T19:57:36;25.50;55.30
54960;DHT22;40860;51.710;8.736;2022-08-25T20:01:45;25.40;55.50
54960;DHT22;40860;51.710;8.736;2022-08-25T20:05:50;25.30;55.90
54960;DHT22;40860;51.710;8.736;2022-08-25T20:09:54;25.20;55.90
54960;DHT22;40860;51.710;8.736;2022-08-25T20:13:58;25.10;56.30
54960;DHT22;40860;51.710;8.736;2022-08-25T20:18:06;24.90;56.70
54960;DHT22;40860;51.710;8.736;2022-08-25T20:22:09;24.80;57.10
54960;DHT22;40860;51.710;8.736;2022-08-25T20:26:19;24.80;57.10
54960;DHT22;40860;51.710;8.736;2022-08-25T20:30:28;24.70;57.60
54960;DHT22;40860;51.710;8.736;2022-08-25T20:34:33;24.60;57.90
54960;DHT22;40860;51.710;8.736;2022-08-25T20:38:37;24.50;58.10
54960;DHT22;40860;51.710;8.736;2022-08-25T20:42:43;24.40;58.30
54960;DHT22;40860;51.710;8.736;2022-08-25T20:46:47;24.40;58.80
54960;DHT22;40860;51.710;8.736;2022-08-25T20:50:53;24.30;59.00
54960;DHT22;40860;51.710;8.736;2022-08-25T20:54:58;24.30;59.30
54960;DHT22;40860;51.710;8.736;2022-08-25T20:59:01;24.30;59.40
54960;DHT22;40860;51.710;8.736;2022-08-25T21:03:11;24.30;60.00
54960;DHT22;40860;51.710;8.736;2022-08-25T21:07:15;24.30;59.80
54960;DHT22;40860;51.710;8.736;2022-08-25T21:11:18;24.30;59.90
54960;DHT22;40860;51.710;8.736;2022-08-25T21:15:23;24.20;60.40
54960;DHT22;40860;51.710;8.736;2022-08-25T21:19:27;24.10;60.60
54960;DHT22;40860;51.710;8.736;2022-08-25T21:23:32;24.00;61.30
54960;DHT22;40860;51.710;8.736;2022-08-25T21:27:35;24.00;61.20
54960;DHT22;40860;51.710;8.736;2022-08-25T21:31:39;23.90;61.50
54960;DHT22;40860;51.710;8.736;2022-08-25T21:35:42;23.90;62.20
54960;DHT22;40860;51.710;8.736;2022-08-25T21:39:49;23.80;62.90
54960;DHT22;40860;51.710;8.736;2022-08-25T21:43:52;23.70;63.50
54960;DHT22;40860;51.710;8.736;2022-08-25T21:47:55;23.60;64.20
54960;DHT22;40860;51.710;8.736;2022-08-25T21:51:57;23.60;64.40
54960;DHT22;40860;51.710;8.736;2022-08-25T21:56:05;23.50;64.80
54960;DHT22;40860;51.710;8.736;2022-08-25T22:00:10;23.50;64.60
54960;DHT22;40860;51.710;8.736;2022-08-25T22:04:13;23.50;64.70
54960;DHT22;40860;51.710;8.736;2022-08-25T22:08:16;23.50;65.10
54960;DHT22;40860;51.710;8.736;2022-08-25T22:12:21;23.50;65.20
54960;DHT22;40860;51.710;8.736;2022-08-25T22:16:26;23.50;65.80
54960;DHT22;40860;51.710;8.736;2022-08-25T22:20:30;23.40;66.50
54960;DHT22;40860;51.710;8.736;2022-08-25T22:24:33;23.40;66.80
54960;DHT22;40860;51.710;8.736;2022-08-25T22:28:37;23.30;66.90
54960;DHT22;40860;51.710;8.736;2022-08-25T22:32:44;23.20;67.70
54960;DHT22;40860;51.710;8.736;2022-08-25T22:36:47;23.10;67.80
54960;DHT22;40860;51.710;8.736;2022-08-25T22:40:51;23.10;68.10
54960;DHT22;40860;51.710;8.736;2022-08-25T22:44:55;23.10;68.90
54960;DHT22;40860;51.710;8.736;2022-08-25T22:48:58;23.10;68.20
54960;DHT22;40860;51.710;8.736;2022-08-25T22:53:01;23.00;68.90
54960;DHT22;40860;51.710;8.736;2022-08-25T22:57:05;23.00;68.50
54960;DHT22;40860;51.710;8.736;2022-08-25T23:01:13;23.00;69.10
54960;DHT22;40860;51.710;8.736;2022-08-25T23:05:17;22.90;69.60
54960;DHT22;40860;51.710;8.736;2022-08-25T23:09:20;22.90;69.60
54960;DHT22;40860;51.710;8.736;2022-08-25T23:13:25;22.90;69.90
54960;DHT22;40860;51.710;8.736;2022-08-25T23:17:36;22.80;70.00
54960;DHT22;40860;51.710;8.736;2022-08-25T23:21:39;22.80;70.00
54960;DHT22;40860;51.710;8.736;2022-08-25T23:26:00;22.80;70.20
54960;DHT22;40860;51.710;8.736;2022-08-25T23:30:04;22.70;70.80
54960;DHT22;40860;51.710;8.736;2022-08-25T23:34:11;22.70;71.00
54960;DHT22;40860;51.710;8.736;2022-08-25T23:38:13;22.60;71.10
54960;DHT22;40860;51.710;8.736;2022-08-25T23:42:17;22.60;71.60
54960;DHT22;40860;51.710;8.736;2022-08-25T23:46:22;22.50;72.00
54960;DHT22;40860;51.710;8.736;2022-08-25T23:50:27;22.50;71.60
54960;DHT22;40860;51.710;8.736;2022-08-25T23:54:32;22.50;72.10
54960;DHT22;40860;51.710;8.736;2022-08-25T23:58:34;22.50;72.00
